createdAt,value
2018-05-24T00:00:15.199Z,0
2018-05-24T00:01:24.922Z,0
2018-05-24T00:02:34.903Z,0
2018-05-24T00:03:44.622Z,0
2018-05-24T00:04:54.061Z,0
2018-05-24T00:06:03.781Z,0
2018-05-24T00:07:13.513Z,0
2018-05-24T00:08:23.490Z,0
2018-05-24T00:09:33.467Z,0
2018-05-24T00:10:42.932Z,0
2018-05-24T00:11:52.916Z,0
2018-05-24T00:13:02.908Z,0
2018-05-24T00:14:12.880Z,0
2018-05-24T00:15:22.926Z,0
2018-05-24T00:16:32.663Z,0
2018-05-24T00:17:42.390Z,0
2018-05-24T00:18:52.431Z,0
2018-05-24T00:20:02.262Z,0
2018-05-24T00:21:12.236Z,0
2018-05-24T00:22:22.201Z,0
2018-05-24T00:23:31.917Z,0
2018-05-24T00:24:41.887Z,0
2018-05-24T00:25:51.618Z,0
2018-05-24T00:27:01.078Z,0
2018-05-24T00:28:11.045Z,0
2018-05-24T00:29:20.777Z,0
2018-05-24T00:30:30.594Z,0
2018-05-24T00:31:40.323Z,0
2018-05-24T00:32:50.041Z,0
2018-05-24T00:34:00.005Z,0
2018-05-24T00:35:09.717Z,0
2018-05-24T00:36:19.730Z,0
2018-05-24T00:37:29.444Z,0
2018-05-24T00:38:39.423Z,0
2018-05-24T00:39:48.886Z,0
2018-05-24T00:40:58.858Z,0
2018-05-24T00:42:08.591Z,0
2018-05-24T00:43:18.039Z,0
2018-05-24T00:44:28.017Z,0
2018-05-24T00:45:37.987Z,0
2018-05-24T00:46:47.694Z,0
2018-05-24T00:47:57.663Z,0
2018-05-24T00:49:07.395Z,0
2018-05-24T00:50:17.368Z,0
2018-05-24T00:51:27.426Z,0
2018-05-24T00:52:37.409Z,0
2018-05-24T00:53:47.121Z,0
2018-05-24T00:54:56.591Z,0
2018-05-24T00:56:06.564Z,0
2018-05-24T00:57:16.555Z,0
2018-05-24T00:58:26.542Z,0
2018-05-24T00:59:36.526Z,0
2018-05-24T01:00:46.488Z,0
2018-05-24T01:01:56.199Z,0
2018-05-24T01:03:06.182Z,0
2018-05-24T01:04:15.913Z,0
2018-05-24T01:05:25.888Z,0
2018-05-24T01:06:35.863Z,0
2018-05-24T01:07:45.837Z,0
2018-05-24T01:08:55.801Z,0
2018-05-24T01:10:05.788Z,0
2018-05-24T01:11:15.779Z,0
2018-05-24T01:12:25.768Z,0
2018-05-24T01:13:35.732Z,0
2018-05-24T01:14:45.717Z,0
2018-05-24T01:15:55.993Z,0
2018-05-24T01:17:05.993Z,0
2018-05-24T01:18:15.703Z,0
2018-05-24T01:19:25.427Z,0
2018-05-24T01:20:35.418Z,0
2018-05-24T01:21:45.136Z,0
2018-05-24T01:22:54.847Z,0
2018-05-24T01:24:04.551Z,0
2018-05-24T01:25:14.511Z,0
2018-05-24T01:26:24.492Z,0
2018-05-24T01:27:34.467Z,0
2018-05-24T01:28:44.165Z,0
2018-05-24T01:29:53.870Z,0
2018-05-24T01:31:03.838Z,0
2018-05-24T01:32:13.804Z,0
2018-05-24T01:33:23.520Z,0
2018-05-24T01:34:33.516Z,0
2018-05-24T01:35:43.489Z,0
2018-05-24T01:36:53.471Z,0
2018-05-24T01:38:03.173Z,0
2018-05-24T01:39:12.640Z,0
2018-05-24T01:40:22.624Z,0
2018-05-24T01:41:32.600Z,0
2018-05-24T01:42:42.338Z,0
2018-05-24T01:43:52.328Z,0
2018-05-24T01:45:02.084Z,0
2018-05-24T01:46:12.060Z,0
2018-05-24T01:47:22.044Z,0
2018-05-24T01:48:31.759Z,0
2018-05-24T01:49:41.754Z,0
2018-05-24T01:50:51.485Z,0
2018-05-24T01:52:00.930Z,0
2018-05-24T01:53:10.896Z,0
2018-05-24T01:54:20.626Z,0
2018-05-24T01:55:30.606Z,0
2018-05-24T01:56:40.325Z,0
2018-05-24T01:57:50.047Z,0
2018-05-24T01:58:59.762Z,0
2018-05-24T02:00:09.742Z,0
2018-05-24T02:01:19.464Z,0
2018-05-24T02:02:29.430Z,0
2018-05-24T02:03:39.437Z,0
2018-05-24T02:04:49.432Z,0
2018-05-24T02:05:59.399Z,0
2018-05-24T02:07:09.366Z,0
2018-05-24T02:08:18.812Z,0
2018-05-24T02:09:28.785Z,0
2018-05-24T02:10:38.760Z,0
2018-05-24T02:11:48.745Z,4
2018-05-24T02:12:58.711Z,4
2018-05-24T02:14:08.709Z,4
2018-05-24T02:15:18.419Z,0
2018-05-24T02:16:28.393Z,4
2018-05-24T02:17:38.100Z,4
2018-05-24T02:18:48.060Z,4
2018-05-24T02:19:57.764Z,4
2018-05-24T02:21:07.450Z,8
2018-05-24T02:22:17.407Z,4
2018-05-24T02:23:27.380Z,8
2018-05-24T02:24:37.368Z,8
2018-05-24T02:25:47.286Z,12
2018-05-24T02:26:57.506Z,12
2018-05-24T02:28:07.464Z,16
2018-05-24T02:29:17.243Z,16
2018-05-24T02:30:27.228Z,20
2018-05-24T02:31:36.944Z,24
2018-05-24T02:32:46.664Z,24
2018-05-24T02:33:56.646Z,28
2018-05-24T02:35:06.641Z,32
2018-05-24T02:36:16.621Z,36
2018-05-24T02:37:26.587Z,44
2018-05-24T02:38:36.559Z,52
2018-05-24T02:39:46.536Z,60
2018-05-24T02:40:56.338Z,72
2018-05-24T02:42:06.048Z,80
2018-05-24T02:43:15.780Z,92
2018-05-24T02:44:25.507Z,104
2018-05-24T02:45:35.501Z,120
2018-05-24T02:46:45.458Z,136
2018-05-24T02:47:55.436Z,156
2018-05-24T02:49:05.402Z,180
2018-05-24T02:50:15.377Z,200
2018-05-24T02:51:25.356Z,228
2018-05-24T02:52:35.341Z,256
2018-05-24T02:53:45.315Z,288
2018-05-24T02:54:55.287Z,316
2018-05-24T02:56:04.993Z,356
2018-05-24T02:57:14.713Z,392
2018-05-24T02:58:24.437Z,436
2018-05-24T02:59:34.407Z,480
2018-05-24T03:00:44.373Z,532
2018-05-24T03:01:54.062Z,584
2018-05-24T03:03:04.037Z,640
2018-05-24T03:04:14.008Z,704
2018-05-24T03:05:23.717Z,768
2018-05-24T03:06:33.692Z,840
2018-05-24T03:07:43.407Z,916
2018-05-24T03:08:53.139Z,996
2018-05-24T03:10:03.112Z,1084
2018-05-24T03:11:12.832Z,1180
2018-05-24T03:12:22.813Z,1288
2018-05-24T03:13:32.804Z,1436
2018-05-24T03:14:42.262Z,1656
2018-05-24T03:15:51.995Z,1644
2018-05-24T03:17:01.964Z,1676
2018-05-24T03:18:11.937Z,1796
2018-05-24T03:19:21.961Z,1888
2018-05-24T03:20:31.669Z,2132
2018-05-24T03:21:41.634Z,2228
2018-05-24T03:22:51.345Z,2260
2018-05-24T03:24:01.328Z,2376
2018-05-24T03:25:11.036Z,2492
2018-05-24T03:26:20.748Z,2608
2018-05-24T03:27:30.455Z,2720
2018-05-24T03:28:40.165Z,2840
2018-05-24T03:29:50.123Z,2964
2018-05-24T03:31:00.102Z,3084
2018-05-24T03:32:09.821Z,3204
2018-05-24T03:33:19.539Z,3320
2018-05-24T03:34:29.263Z,3444
2018-05-24T03:35:39.232Z,3568
2018-05-24T03:36:48.946Z,3688
2018-05-24T03:37:58.920Z,3788
2018-05-24T03:39:08.628Z,3908
2018-05-24T03:40:18.359Z,4052
2018-05-24T03:41:28.331Z,4184
2018-05-24T03:42:38.049Z,4308
2018-05-24T03:43:48.018Z,4408
2018-05-24T03:44:57.994Z,4488
2018-05-24T03:46:07.449Z,4572
2018-05-24T03:47:17.165Z,4648
2018-05-24T03:48:27.156Z,4720
2018-05-24T03:49:36.861Z,4792
2018-05-24T03:50:46.896Z,4852
2018-05-24T03:51:56.611Z,4932
2018-05-24T03:53:06.621Z,5024
2018-05-24T03:54:16.603Z,5096
2018-05-24T03:55:26.568Z,5188
2018-05-24T03:56:36.546Z,5284
2018-05-24T03:57:46.943Z,5364
2018-05-24T03:58:56.599Z,5432
2018-05-24T04:00:06.331Z,5496
2018-05-24T04:01:16.043Z,5560
2018-05-24T04:02:25.765Z,5616
2018-05-24T04:03:35.482Z,5672
2018-05-24T04:04:45.199Z,5740
2018-05-24T04:05:55.261Z,5820
2018-05-24T04:07:05.259Z,5888
2018-05-24T04:08:15.243Z,5952
2018-05-24T04:09:25.255Z,6036
2018-05-24T04:10:34.968Z,6120
2018-05-24T04:11:44.669Z,6180
2018-05-24T04:12:54.388Z,6228
2018-05-24T04:14:04.363Z,6280
2018-05-24T04:15:14.346Z,6328
2018-05-24T04:16:24.320Z,6364
2018-05-24T04:17:34.296Z,6424
2018-05-24T04:18:44.266Z,6488
2018-05-24T04:19:54.229Z,6556
2018-05-24T04:21:03.946Z,6628
2018-05-24T04:22:13.925Z,6676
2018-05-24T04:23:23.978Z,6712
2018-05-24T04:24:33.943Z,6748
2018-05-24T04:25:43.917Z,6816
2018-05-24T04:26:53.899Z,6904
2018-05-24T04:28:03.963Z,6980
2018-05-24T04:29:13.938Z,7084
2018-05-24T04:30:23.931Z,7200
2018-05-24T04:31:33.903Z,7296
2018-05-24T04:32:43.628Z,7364
2018-05-24T04:33:53.356Z,7440
2018-05-24T04:35:03.437Z,7532
2018-05-24T04:36:13.407Z,7640
2018-05-24T04:37:23.129Z,7748
2018-05-24T04:38:32.842Z,7872
2018-05-24T04:39:42.810Z,8008
2018-05-24T04:40:52.771Z,8140
2018-05-24T04:42:02.751Z,8264
2018-05-24T04:43:12.459Z,8376
2018-05-24T04:44:22.430Z,8500
2018-05-24T04:45:32.706Z,8624
2018-05-24T04:46:42.898Z,8704
2018-05-24T04:47:52.873Z,8812
2018-05-24T04:49:02.326Z,8876
2018-05-24T04:50:12.036Z,8944
2018-05-24T04:51:22.020Z,8980
2018-05-24T04:52:32.008Z,9044
2018-05-24T04:53:41.985Z,9108
2018-05-24T04:54:51.976Z,9176
2018-05-24T04:56:01.954Z,9304
2018-05-24T04:57:12.011Z,9448
2018-05-24T04:58:21.989Z,9588
2018-05-24T04:59:31.712Z,9740
2018-05-24T05:00:41.701Z,9908
2018-05-24T05:01:51.770Z,9980
2018-05-24T05:03:01.763Z,10032
2018-05-24T05:04:11.751Z,10104
2018-05-24T05:05:21.732Z,10180
2018-05-24T05:06:31.710Z,10256
2018-05-24T05:07:41.688Z,10404
2018-05-24T05:08:51.653Z,10540
2018-05-24T05:10:01.640Z,10720
2018-05-24T05:11:11.632Z,10860
2018-05-24T05:12:21.598Z,11048
2018-05-24T05:13:31.417Z,11220
2018-05-24T05:14:41.753Z,11328
2018-05-24T05:15:51.905Z,11400
2018-05-24T05:17:01.909Z,11504
2018-05-24T05:18:11.624Z,11648
2018-05-24T05:19:21.654Z,11760
2018-05-24T05:20:31.762Z,11888
2018-05-24T05:21:41.736Z,11952
2018-05-24T05:22:51.721Z,12032
2018-05-24T05:24:01.712Z,12068
2018-05-24T05:25:11.849Z,12160
2018-05-24T05:26:21.848Z,12200
2018-05-24T05:27:31.829Z,12228
2018-05-24T05:28:41.799Z,12292
2018-05-24T05:29:51.798Z,12228
2018-05-24T05:31:01.784Z,12220
2018-05-24T05:32:11.771Z,12288
2018-05-24T05:33:21.758Z,12348
2018-05-24T05:34:31.476Z,12436
2018-05-24T05:35:41.552Z,12396
2018-05-24T05:36:51.525Z,12392
2018-05-24T05:38:01.519Z,12412
2018-05-24T05:39:10.988Z,12456
2018-05-24T05:40:20.717Z,12572
2018-05-24T05:41:30.441Z,12744
2018-05-24T05:42:40.425Z,12684
2018-05-24T05:43:50.126Z,12556
2018-05-24T05:45:00.158Z,12640
2018-05-24T05:46:10.221Z,12696
2018-05-24T05:47:20.196Z,12804
2018-05-24T05:48:30.192Z,12864
2018-05-24T05:49:39.909Z,12876
2018-05-24T05:50:49.883Z,12872
2018-05-24T05:52:00.126Z,13064
2018-05-24T05:53:10.223Z,13052
2018-05-24T05:54:20.192Z,13020
2018-05-24T05:55:30.158Z,13012
2018-05-24T05:56:40.142Z,12892
2018-05-24T05:57:49.861Z,12996
2018-05-24T05:58:59.900Z,13140
2018-05-24T06:00:09.874Z,13124
2018-05-24T06:01:19.855Z,13108
2018-05-24T06:02:29.827Z,13180
2018-05-24T06:03:39.835Z,13240
2018-05-24T06:04:49.563Z,13252
2018-05-24T06:05:59.553Z,13256
2018-05-24T06:07:09.566Z,13256
2018-05-24T06:08:19.554Z,13344
2018-05-24T06:09:29.543Z,13444
2018-05-24T06:10:39.512Z,13632
2018-05-24T06:11:49.486Z,13568
2018-05-24T06:12:59.474Z,13628
2018-05-24T06:14:09.194Z,13616
2018-05-24T06:15:19.150Z,13560
2018-05-24T06:16:29.145Z,13512
2018-05-24T06:17:39.223Z,13404
2018-05-24T06:18:48.955Z,13440
2018-05-24T06:19:58.676Z,13572
2018-05-24T06:21:08.769Z,13688
2018-05-24T06:22:18.503Z,13828
2018-05-24T06:23:28.496Z,13800
2018-05-24T06:24:38.234Z,13812
2018-05-24T06:25:47.970Z,13912
2018-05-24T06:26:57.705Z,13800
2018-05-24T06:28:07.719Z,13556
2018-05-24T06:29:17.492Z,13216
2018-05-24T06:30:27.217Z,13060
2018-05-24T06:31:37.215Z,12988
2018-05-24T06:32:47.283Z,12864
2018-05-24T06:33:57.278Z,12572
2018-05-24T06:35:07.280Z,12020
2018-05-24T06:36:17.288Z,11784
2018-05-24T06:37:27.426Z,11520
2018-05-24T06:38:37.437Z,11476
2018-05-24T06:39:47.284Z,10924
2018-05-24T06:40:57.295Z,10980
2018-05-24T06:42:07.286Z,10888
2018-05-24T06:43:17.283Z,10936
2018-05-24T06:44:27.297Z,11392
2018-05-24T06:45:37.294Z,11448
2018-05-24T06:46:47.276Z,11720
2018-05-24T06:47:57.284Z,11724
2018-05-24T06:49:07.358Z,11648
2018-05-24T06:50:17.585Z,12096
2018-05-24T06:51:27.347Z,12408
2018-05-24T06:52:37.364Z,12708
2018-05-24T06:53:47.624Z,12720
2018-05-24T06:54:57.500Z,12944
2018-05-24T06:56:07.495Z,13436
2018-05-24T06:57:17.499Z,13544
2018-05-24T06:58:27.552Z,13632
2018-05-24T06:59:36.757Z,13744
2018-05-24T07:00:46.493Z,13848
2018-05-24T07:01:56.478Z,13992
2018-05-24T07:03:06.569Z,14116
2018-05-24T07:04:16.386Z,14272
2018-05-24T07:05:26.144Z,14416
2018-05-24T07:06:36.138Z,14560
2018-05-24T07:07:46.146Z,14752
2018-05-24T07:08:55.616Z,14928
2018-05-24T07:10:05.621Z,15112
2018-05-24T07:11:15.764Z,15320
2018-05-24T07:12:25.774Z,15536
2018-05-24T07:13:35.776Z,15728
2018-05-24T07:14:45.791Z,15964
2018-05-24T07:15:55.810Z,16196
2018-05-24T07:17:05.801Z,16428
2018-05-24T07:18:15.807Z,16692
2018-05-24T07:19:25.829Z,16932
2018-05-24T07:20:35.827Z,17216
2018-05-24T07:21:45.568Z,17524
2018-05-24T07:22:55.311Z,17820
2018-05-24T07:24:05.360Z,18108
2018-05-24T07:25:15.089Z,18384
2018-05-24T07:26:25.070Z,18660
2018-05-24T07:27:35.073Z,19136
2018-05-24T07:28:44.826Z,19328
2018-05-24T07:29:54.919Z,19520
2018-05-24T07:31:04.661Z,19648
2018-05-24T07:32:14.650Z,19808
2018-05-24T07:33:24.688Z,19904
2018-05-24T07:34:34.683Z,20000
2018-05-24T07:35:44.690Z,20128
2018-05-24T07:36:54.700Z,20224
2018-05-24T07:38:04.188Z,20352
2018-05-24T07:39:13.659Z,20448
2018-05-24T07:40:23.660Z,20512
2018-05-24T07:41:33.684Z,20512
2018-05-24T07:42:42.375Z,20608
2018-05-24T07:43:52.383Z,20672
2018-05-24T07:45:02.272Z,20672
2018-05-24T07:46:11.807Z,20544
2018-05-24T07:47:21.562Z,20832
2018-05-24T07:48:31.075Z,20768
2018-05-24T07:49:40.552Z,20608
2018-05-24T07:50:50.552Z,20448
2018-05-24T07:52:00.316Z,20352
2018-05-24T07:53:10.330Z,20256
2018-05-24T07:54:20.336Z,19904
2018-05-24T07:55:29.816Z,19968
2018-05-24T07:56:39.866Z,20288
2018-05-24T07:57:49.328Z,20768
2018-05-24T07:58:59.095Z,20960
2018-05-24T08:00:08.906Z,21088
2018-05-24T08:01:18.629Z,21088
2018-05-24T08:02:28.689Z,21152
2018-05-24T08:03:38.677Z,21024
2018-05-24T08:04:48.423Z,20832
2018-05-24T08:05:58.409Z,20544
2018-05-24T08:07:07.864Z,20128
2018-05-24T08:08:17.581Z,19776
2018-05-24T08:09:27.317Z,19136
2018-05-24T08:10:37.281Z,18912
2018-05-24T08:11:47.019Z,18372
2018-05-24T08:12:57.032Z,18688
2018-05-24T08:14:07.023Z,18784
2018-05-24T08:15:16.219Z,18720
2018-05-24T08:16:25.957Z,18264
2018-05-24T08:17:36.012Z,18052
2018-05-24T08:18:46.035Z,17808
2018-05-24T08:19:56.044Z,17568
2018-05-24T08:21:06.046Z,17532
2018-05-24T08:22:15.827Z,17928
2018-05-24T08:23:25.943Z,18044
2018-05-24T08:24:36.053Z,18180
2018-05-24T08:25:45.792Z,18372
2018-05-24T08:26:55.513Z,18944
2018-05-24T08:28:05.289Z,25312
2018-05-24T08:29:14.785Z,38176
2018-05-24T08:30:24.817Z,40256
2018-05-24T08:31:34.846Z,34368
2018-05-24T08:32:44.863Z,32992
2018-05-24T08:33:54.851Z,42432
2018-05-24T08:35:04.637Z,46720
2018-05-24T08:36:14.399Z,47264
2018-05-24T08:37:24.445Z,39104
2018-05-24T08:38:34.465Z,37664
2018-05-24T08:39:44.742Z,40384
2018-05-24T08:40:55.043Z,46784
2018-05-24T08:42:05.073Z,48160
2018-05-24T08:43:14.847Z,42560
2018-05-24T08:44:24.326Z,37408
2018-05-24T08:45:34.347Z,36096
2018-05-24T08:46:44.637Z,38720
2018-05-24T08:47:54.631Z,44864
2018-05-24T08:49:04.640Z,45216
2018-05-24T08:50:14.641Z,49088
2018-05-24T08:51:24.652Z,44224
2018-05-24T08:52:34.676Z,49056
2018-05-24T08:53:44.668Z,44512
2018-05-24T08:54:54.469Z,44320
2018-05-24T08:56:04.514Z,36192
2018-05-24T08:57:14.303Z,31456
2018-05-24T08:58:24.097Z,32672
2018-05-24T08:59:34.101Z,32192
2018-05-24T09:00:43.845Z,34624
2018-05-24T09:01:53.841Z,36992
2018-05-24T09:03:03.847Z,40928
2018-05-24T09:04:13.886Z,48896
2018-05-24T09:05:23.888Z,49472
2018-05-24T09:06:33.893Z,31968
2018-05-24T09:07:43.648Z,41952
2018-05-24T09:08:53.694Z,46816
2018-05-24T09:10:03.176Z,54112
2018-05-24T09:11:12.922Z,59200
2018-05-24T09:12:22.937Z,59424
2018-05-24T09:13:32.960Z,61888
2018-05-24T09:14:42.462Z,63968
2018-05-24T09:15:52.464Z,66240
2018-05-24T09:17:02.463Z,68320
2018-05-24T09:18:12.447Z,70656
2018-05-24T09:19:22.169Z,67840
2018-05-24T09:20:32.154Z,72096
2018-05-24T09:21:42.247Z,73120
2018-05-24T09:22:52.341Z,71008
2018-05-24T09:24:02.318Z,75552
2018-05-24T09:25:12.326Z,77632
2018-05-24T09:26:22.331Z,75392
2018-05-24T09:27:32.370Z,77760
2018-05-24T09:28:42.120Z,80000
2018-05-24T09:29:52.160Z,77472
2018-05-24T09:31:02.148Z,76224
2018-05-24T09:32:12.159Z,74368
2018-05-24T09:33:21.896Z,62656
2018-05-24T09:34:31.645Z,66848
2018-05-24T09:35:41.117Z,81632
2018-05-24T09:36:51.124Z,84288
2018-05-24T09:38:00.862Z,82944
2018-05-24T09:39:10.065Z,83584
2018-05-24T09:40:19.816Z,83232
2018-05-24T09:41:29.558Z,82720
2018-05-24T09:42:39.568Z,86080
2018-05-24T09:43:49.324Z,86656
2018-05-24T09:44:59.363Z,83808
2018-05-24T09:46:08.847Z,85920
2018-05-24T09:47:18.590Z,90848
2018-05-24T09:48:28.331Z,89088
2018-05-24T09:49:38.086Z,88256
2018-05-24T09:50:47.592Z,88736
2018-05-24T09:51:57.337Z,88160
2018-05-24T09:53:07.333Z,92576
2018-05-24T09:54:17.351Z,93760
2018-05-24T09:55:27.630Z,91744
2018-05-24T09:56:37.213Z,87328
2018-05-24T09:57:47.230Z,91840
2018-05-24T09:58:56.963Z,96448
2018-05-24T10:00:06.963Z,93184
2018-05-24T10:01:16.702Z,91648
2018-05-24T10:02:26.437Z,97408
2018-05-24T10:03:36.465Z,96000
2018-05-24T10:04:46.511Z,94560
2018-05-24T10:05:56.237Z,101184
2018-05-24T10:07:06.269Z,101216
2018-05-24T10:08:16.309Z,102592
2018-05-24T10:09:26.324Z,101792
2018-05-24T10:10:36.190Z,104032
2018-05-24T10:11:46.283Z,95584
2018-05-24T10:12:56.009Z,102496
2018-05-24T10:14:06.043Z,42144
2018-05-24T10:15:15.819Z,111232
2018-05-24T10:16:26.516Z,37632
2018-05-24T10:17:36.754Z,32192
2018-05-24T10:18:46.773Z,115488
2018-05-24T10:19:56.796Z,112672
2018-05-24T10:21:06.539Z,110464
2018-05-24T10:22:16.629Z,109280
2018-05-24T10:23:26.693Z,106688
2018-05-24T10:24:36.728Z,110048
2018-05-24T10:25:46.727Z,109024
2018-05-24T10:26:56.477Z,60800
2018-05-24T10:28:06.577Z,52000
2018-05-24T10:29:16.381Z,107776
2018-05-24T10:30:26.132Z,104032
2018-05-24T10:31:36.170Z,107072
2018-05-24T10:32:46.212Z,114016
2018-05-24T10:33:56.314Z,104576
2018-05-24T10:35:06.376Z,114880
2018-05-24T10:36:16.370Z,117248
2018-05-24T10:37:26.371Z,37632
2018-05-24T10:38:35.846Z,121984
2018-05-24T10:39:45.627Z,45312
2018-05-24T10:40:55.633Z,115360
2018-05-24T10:42:05.630Z,113504
2018-05-24T10:43:15.369Z,36800
2018-05-24T10:44:25.105Z,116032
2018-05-24T10:45:34.842Z,118208
2018-05-24T10:46:44.581Z,115104
2018-05-24T10:47:54.319Z,123104
2018-05-24T10:49:03.799Z,116960
2018-05-24T10:50:13.891Z,111840
2018-05-24T10:51:24.085Z,124416
2018-05-24T10:52:33.832Z,122816
2018-05-24T10:53:43.573Z,109568
2018-05-24T10:54:53.566Z,116480
2018-05-24T10:56:03.820Z,121344
2018-05-24T10:57:13.763Z,110944
2018-05-24T10:58:23.774Z,113120
2018-05-24T10:59:33.909Z,116256
2018-05-24T11:00:43.684Z,119232
2018-05-24T11:01:53.412Z,107008
2018-05-24T11:03:03.615Z,114144
2018-05-24T11:04:13.559Z,120352
2018-05-24T11:05:23.044Z,123296
2018-05-24T11:06:33.215Z,114752
2018-05-24T11:07:42.951Z,115776
2018-05-24T11:08:52.946Z,128288
2018-05-24T11:10:02.938Z,125856
2018-05-24T11:11:12.962Z,118816
2018-05-24T11:12:23.109Z,109056
2018-05-24T11:13:32.866Z,119808
2018-05-24T11:14:42.866Z,115328
2018-05-24T11:15:52.595Z,120768
2018-05-24T11:17:02.581Z,131872
2018-05-24T11:18:12.319Z,119136
2018-05-24T11:19:22.321Z,111072
2018-05-24T11:20:32.304Z,120096
2018-05-24T11:21:42.296Z,125056
2018-05-24T11:22:52.298Z,126432
2018-05-24T11:24:02.347Z,125376
2018-05-24T11:25:12.453Z,123200
2018-05-24T11:26:22.761Z,123712
2018-05-24T11:27:32.501Z,125632
2018-05-24T11:28:42.514Z,129344
2018-05-24T11:29:52.268Z,125312
2018-05-24T11:31:02.281Z,28000
2018-05-24T11:32:12.243Z,130048
2018-05-24T11:33:21.733Z,126784
2018-05-24T11:34:31.469Z,122176
2018-05-24T11:35:41.210Z,119328
2018-05-24T11:36:50.946Z,127104
2018-05-24T11:38:00.961Z,137280
2018-05-24T11:39:10.969Z,139360
2018-05-24T11:40:20.754Z,124288
2018-05-24T11:41:30.750Z,119936
2018-05-24T11:42:40.477Z,122272
2018-05-24T11:43:50.468Z,117632
2018-05-24T11:45:00.481Z,120864
2018-05-24T11:46:10.483Z,136480
2018-05-24T11:47:20.213Z,134624
2018-05-24T11:48:30.218Z,124992
2018-05-24T11:49:39.960Z,123744
2018-05-24T11:50:49.956Z,130944
2018-05-24T11:52:00.396Z,130304
2018-05-24T11:53:10.509Z,125856
2018-05-24T11:54:20.237Z,133600
2018-05-24T11:55:30.236Z,134944
2018-05-24T11:56:40.049Z,131680
2018-05-24T11:57:50.038Z,133184
2018-05-24T11:58:59.773Z,131392
2018-05-24T12:00:09.815Z,131360
2018-05-24T12:01:19.821Z,131200
2018-05-24T12:02:29.300Z,130528
2018-05-24T12:03:39.044Z,133856
2018-05-24T12:04:49.046Z,136512
2018-05-24T12:05:58.796Z,126560
2018-05-24T12:07:08.960Z,126208
2018-05-24T12:08:19.092Z,134656
2018-05-24T12:09:29.088Z,139232
2018-05-24T12:10:39.085Z,142272
2018-05-24T12:11:49.082Z,134560
2018-05-24T12:12:59.086Z,133568
2018-05-24T12:14:08.829Z,128768
2018-05-24T12:15:19.106Z,129760
2018-05-24T12:16:28.859Z,133088
2018-05-24T12:17:38.592Z,132704
2018-05-24T12:18:48.584Z,141088
2018-05-24T12:19:58.595Z,137312
2018-05-24T12:21:08.590Z,131520
2018-05-24T12:22:18.322Z,135584
2018-05-24T12:23:28.323Z,132832
2018-05-24T12:24:38.051Z,131200
2018-05-24T12:25:47.774Z,136192
2018-05-24T12:26:57.527Z,134336
2018-05-24T12:28:07.512Z,133984
2018-05-24T12:29:17.880Z,135392
2018-05-24T12:30:27.883Z,130368
2018-05-24T12:31:37.609Z,124000
2018-05-24T12:32:47.597Z,132320
2018-05-24T12:33:57.599Z,133920
2018-05-24T12:35:07.613Z,123200
2018-05-24T12:36:17.098Z,126944
2018-05-24T12:37:26.831Z,137792
2018-05-24T12:38:36.587Z,139584
2018-05-24T12:39:46.580Z,138048
2018-05-24T12:40:56.870Z,144448
2018-05-24T12:42:06.870Z,140704
2018-05-24T12:43:16.856Z,130016
2018-05-24T12:44:26.593Z,134080
2018-05-24T12:45:36.124Z,139168
2018-05-24T12:46:46.130Z,137184
2018-05-24T12:47:56.128Z,136320
2018-05-24T12:49:06.435Z,133504
2018-05-24T12:50:16.534Z,134144
2018-05-24T12:51:26.518Z,135104
2018-05-24T12:52:36.530Z,129184
2018-05-24T12:53:46.258Z,116736
2018-05-24T12:54:56.262Z,135776
2018-05-24T12:56:06.295Z,131360
2018-05-24T12:57:16.314Z,123808
2018-05-24T12:58:26.055Z,132480
2018-05-24T12:59:36.052Z,135328
2018-05-24T13:00:46.080Z,134336
2018-05-24T13:01:55.828Z,139296
2018-05-24T13:03:05.575Z,143008
2018-05-24T13:04:15.794Z,148608
2018-05-24T13:05:26.112Z,155520
2018-05-24T13:06:36.101Z,147712
2018-05-24T13:07:46.181Z,153056
2018-05-24T13:08:55.907Z,153952
2018-05-24T13:10:05.900Z,133600
2018-05-24T13:11:16.124Z,139904
2018-05-24T13:12:26.356Z,145888
2018-05-24T13:13:36.368Z,130368
2018-05-24T13:14:46.111Z,124992
2018-05-24T13:15:55.853Z,141664
2018-05-24T13:17:06.127Z,138592
2018-05-24T13:18:15.867Z,132736
2018-05-24T13:19:25.870Z,128928
2018-05-24T13:20:35.640Z,121312
2018-05-24T13:21:45.659Z,139616
2018-05-24T13:22:55.401Z,138752
2018-05-24T13:24:05.136Z,130784
2018-05-24T13:25:14.878Z,135616
2018-05-24T13:26:24.616Z,141536
2018-05-24T13:27:34.623Z,139360
2018-05-24T13:28:44.685Z,134304
2018-05-24T13:29:54.702Z,135808
2018-05-24T13:31:04.454Z,135584
2018-05-24T13:32:14.452Z,131264
2018-05-24T13:33:23.928Z,133632
2018-05-24T13:34:34.228Z,135488
2018-05-24T13:35:44.402Z,138400
2018-05-24T13:36:54.145Z,132224
2018-05-24T13:38:04.133Z,136096
2018-05-24T13:39:14.132Z,132864
2018-05-24T13:40:23.898Z,118080
2018-05-24T13:41:33.944Z,111072
2018-05-24T13:42:43.692Z,101024
2018-05-24T13:43:53.714Z,99456
2018-05-24T13:45:03.456Z,113184
2018-05-24T13:46:13.470Z,106848
2018-05-24T13:47:23.476Z,111872
2018-05-24T13:48:33.250Z,112320
2018-05-24T13:49:43.238Z,116768
2018-05-24T13:50:53.242Z,109248
2018-05-24T13:52:03.245Z,103136
2018-05-24T13:53:13.231Z,99200
2018-05-24T13:54:23.256Z,99008
2018-05-24T13:55:33.099Z,108928
2018-05-24T13:56:43.149Z,113920
2018-05-24T13:57:53.132Z,108224
2018-05-24T13:59:03.119Z,109984
2018-05-24T14:00:13.124Z,110752
2018-05-24T14:01:23.152Z,104096
2018-05-24T14:02:33.202Z,108480
2018-05-24T14:03:43.197Z,110816
2018-05-24T14:04:52.955Z,113920
2018-05-24T14:06:02.952Z,101632
2018-05-24T14:07:12.433Z,110752
2018-05-24T14:08:22.451Z,116480
2018-05-24T14:09:32.552Z,111232
2018-05-24T14:10:42.548Z,91296
2018-05-24T14:11:52.292Z,75712
2018-05-24T14:13:02.289Z,80672
2018-05-24T14:14:12.278Z,84928
2018-05-24T14:15:22.273Z,81184
2018-05-24T14:16:32.275Z,78112
2018-05-24T14:17:42.307Z,92576
2018-05-24T14:18:52.313Z,97216
2018-05-24T14:20:02.083Z,108128
2018-05-24T14:21:12.087Z,91008
2018-05-24T14:22:21.567Z,110720
2018-05-24T14:23:31.573Z,103072
2018-05-24T14:24:41.055Z,104288
2018-05-24T14:25:50.812Z,107200
2018-05-24T14:27:00.825Z,96128
2018-05-24T14:28:10.851Z,90304
2018-05-24T14:29:20.586Z,88832
2018-05-24T14:30:30.584Z,85056
2018-05-24T14:31:40.322Z,83456
2018-05-24T14:32:50.337Z,81312
2018-05-24T14:34:00.330Z,85728
2018-05-24T14:35:10.064Z,85824
2018-05-24T14:36:20.055Z,78592
2018-05-24T14:37:30.060Z,82304
2018-05-24T14:38:40.070Z,94368
2018-05-24T14:39:49.814Z,93248
2018-05-24T14:40:59.797Z,87776
2018-05-24T14:42:10.021Z,86080
2018-05-24T14:43:20.016Z,85440
2018-05-24T14:44:29.741Z,87328
2018-05-24T14:45:39.496Z,83360
2018-05-24T14:46:49.498Z,78688
2018-05-24T14:47:59.494Z,77824
2018-05-24T14:49:09.273Z,80064
2018-05-24T14:50:19.028Z,82848
2018-05-24T14:51:28.756Z,76544
2018-05-24T14:52:38.498Z,79872
2018-05-24T14:53:48.509Z,77984
2018-05-24T14:54:58.499Z,78240
2018-05-24T14:56:08.495Z,72736
2018-05-24T14:57:18.553Z,73280
2018-05-24T14:58:28.533Z,69344
2018-05-24T14:59:38.532Z,70976
2018-05-24T15:00:48.560Z,72640
2018-05-24T15:01:58.556Z,71776
2018-05-24T15:03:08.296Z,71328
2018-05-24T15:04:18.025Z,65664
2018-05-24T15:05:28.108Z,59648
2018-05-24T15:06:38.178Z,62688
2018-05-24T15:07:48.197Z,60288
2018-05-24T15:08:57.944Z,60768
2018-05-24T15:10:07.933Z,61824
2018-05-24T15:11:17.679Z,64992
2018-05-24T15:12:27.673Z,63712
2018-05-24T15:13:37.690Z,64640
2018-05-24T15:14:47.681Z,66784
2018-05-24T15:15:57.681Z,68224
2018-05-24T15:17:07.669Z,63232
2018-05-24T15:18:17.692Z,67648